Time;durP1;ratioP1;P1;durP2;ratioP2;P2;SDS_P1;SDS_P2;PMS_P1;PMS_P2;Temp;Humidity;BMP_temperature;BMP_pressure;BME280_temperature;BME280_humidity;BME280_pressure;Samples;Min_cycle;Max_cycle;Signal;HPM_P1;HPM_P2
2021/11/12 00:03:44;;;;;;;3.05;1.95;;;0.90;1.40;;;2.24;100.00;95849.11;618995;222;32090;-72
2021/11/12 00:11:54;;;;;;;2.78;2.10;;;0.80;1.40;;;2.44;100.00;95843.00;645438;216;31595;-72
2021/11/12 00:14:32;;;;;;;2.67;2.47;;;0.80;1.40;;;2.28;100.00;95843.95;620494;225;31927;-72
2021/11/12 00:17:13;;;;;;;3.12;2.92;;;0.70;1.40;;;2.27;100.00;95835.96;645892;212;31565;-71
2021/11/12 00:19:56;;;;;;;3.17;2.12;;;0.70;1.40;;;2.14;100.00;95832.29;646160;216;42161;-71
2021/11/12 00:22:37;;;;;;;2.90;2.53;;;0.70;1.40;;;2.04;100.00;95829.91;645742;212;31591;-71
2021/11/12 00:25:18;;;;;;;2.62;2.00;;;0.70;1.40;;;1.93;100.00;95830.89;618787;226;32081;-71
2021/11/12 00:28:00;;;;;;;6.97;3.50;;;0.70;1.40;;;2.36;100.00;95824.87;644818;212;31592;-72
2021/11/12 00:39:08;;;;;;;3.33;3.03;;;0.80;1.40;;;2.26;100.00;95827.81;646047;216;31575;-76
2021/11/12 00:42:11;;;;;;;7.30;2.95;;;0.90;1.40;;;2.34;100.00;95827.14;641236;216;31954;-72
2021/11/12 00:45:00;;;;;;;4.37;2.90;;;0.90;1.40;;;2.32;100.00;95827.64;645945;215;31608;-70
2021/11/12 00:47:54;;;;;;;3.85;3.05;;;0.90;1.40;;;2.47;100.00;95822.86;647003;212;31606;-70
2021/11/12 00:50:41;;;;;;;4.20;3.80;;;1.00;1.40;;;2.55;100.00;95820.22;646523;216;31598;-71
2021/11/12 00:56:09;;;;;;;3.70;2.35;;;1.00;1.40;;;2.53;100.00;95816.22;647229;216;32155;-71
2021/11/12 00:58:52;;;;;;;4.60;3.25;;;1.00;1.40;;;2.16;100.00;95821.78;646829;216;31534;-71
2021/11/12 01:01:33;;;;;;;4.00;3.17;;;0.80;1.40;;;1.82;100.00;95822.80;647170;216;31957;-72
2021/11/12 01:04:15;;;;;;;2.55;2.03;;;0.70;1.40;;;1.83;100.00;95826.89;646050;216;31600;-71
2021/11/12 01:06:56;;;;;;;3.75;2.65;;;0.70;1.40;;;1.72;100.00;95824.28;646986;216;31618;-71
2021/11/12 01:09:38;;;;;;;4.10;2.50;;;0.60;1.40;;;1.72;100.00;95824.81;646081;212;31568;-71
2021/11/12 01:12:20;;;;;;;4.32;3.03;;;0.60;1.40;;;1.70;100.00;95821.41;620882;225;31922;-71
2021/11/12 01:15:03;;;;;;;4.53;2.03;;;0.60;1.40;;;1.68;100.00;95813.46;645725;216;31597;-71
2021/11/12 01:17:43;;;;;;;4.50;3.10;;;0.70;1.40;;;1.82;100.00;95811.38;617888;222;32836;-71
2021/11/12 01:20:25;;;;;;;1.85;1.60;;;0.80;1.40;;;1.96;100.00;95813.08;647708;216;31560;-71
2021/11/12 01:23:06;;;;;;;5.40;2.90;;;0.80;1.40;;;1.93;100.00;95813.47;646859;212;42811;-68
2021/11/12 01:25:48;;;;;;;6.63;3.57;;;0.80;1.40;;;1.93;100.00;95808.33;646351;216;31617;-71
2021/11/12 01:28:33;;;;;;;4.75;4.35;;;0.80;1.40;;;2.01;100.00;95807.40;645457;212;31583;-71
2021/11/12 01:31:15;;;;;;;2.03;1.92;;;0.90;1.40;;;2.15;100.00;95807.27;646446;216;32440;-68
2021/11/12 01:35:53;;;;;;;4.15;2.70;;;0.90;1.40;;;1.97;100.00;95805.56;646708;212;31577;-72
2021/11/12 01:38:33;;;;;;;3.95;2.37;;;0.80;1.40;;;2.03;100.00;95804.27;647260;216;31541;-69
2021/11/12 01:41:15;;;;;;;1.98;1.80;;;0.80;1.40;;;2.01;100.00;95800.80;618112;222;32295;-69
2021/11/12 01:43:57;;;;;;;3.60;2.83;;;0.90;1.40;;;2.17;100.00;95798.91;646278;216;31587;-71
2021/11/12 01:46:49;;;;;;;4.35;2.75;;;0.90;1.40;;;2.17;100.00;95798.33;646596;216;31569;-70
2021/11/12 01:49:27;;;;;;;3.00;2.40;;;0.90;1.40;;;2.30;100.00;95791.88;646435;216;31715;-68
2021/11/12 01:52:18;;;;;;;2.75;2.10;;;1.00;1.40;;;2.05;100.00;95790.85;647499;212;31562;-74
2021/11/12 01:55:28;;;;;;;2.55;2.35;;;0.90;1.40;;;2.03;100.00;95786.51;645704;216;31880;-71
2021/11/12 02:00:48;;;;;;;4.37;1.67;;;0.90;1.40;;;2.10;100.00;95782.27;630741;221;31873;-71
2021/11/12 02:03:30;;;;;;;2.30;1.98;;;0.90;1.40;;;2.37;100.00;95779.78;646130;216;31988;-71
2021/11/12 02:08:49;;;;;;;4.18;2.10;;;1.10;1.40;;;2.44;100.00;95772.84;646830;212;31574;-70
2021/11/12 02:11:30;;;;;;;3.67;2.35;;;1.10;1.40;;;2.66;100.00;95772.39;646253;216;31575;-72
2021/11/12 02:14:12;;;;;;;1.45;1.35;;;1.20;1.40;;;2.52;100.00;95771.36;646503;212;31565;-71
2021/11/12 02:17:03;;;;;;;2.53;2.00;;;1.20;1.40;;;2.32;100.00;95774.51;646283;216;32708;-69
2021/11/12 02:19:48;;;;;;;5.35;4.20;;;1.10;1.40;;;2.62;100.00;95775.59;646336;216;31554;-68
2021/11/12 02:22:28;;;;;;;2.20;2.03;;;1.30;1.40;;;2.74;100.00;95772.77;647044;216;31670;-69
2021/11/12 02:25:13;;;;;;;4.53;2.28;;;1.30;1.40;;;2.86;100.00;95762.03;646116;212;31833;-71
2021/11/12 02:27:57;;;;;;;5.65;2.10;;;1.40;1.40;;;2.96;100.00;95760.17;647176;216;31594;-71
2021/11/12 02:30:34;;;;;;;3.50;1.80;;;1.50;1.40;;;3.10;100.00;95755.06;646357;216;32135;-69
2021/11/12 02:36:01;;;;;;;2.55;1.85;;;1.40;1.40;;;2.68;100.00;95755.13;647089;212;42228;-71
2021/11/12 02:38:47;;;;;;;1.50;1.40;;;1.40;1.40;;;2.89;100.00;95743.32;646813;216;31561;-72
2021/11/12 02:41:29;;;;;;;2.87;2.60;;;1.60;1.40;;;3.12;100.00;95737.62;643372;212;32319;-71
2021/11/12 02:44:10;;;;;;;3.65;1.95;;;1.70;1.40;;;3.15;100.00;95731.08;647478;216;32202;-69
2021/11/12 02:46:53;;;;;;;3.20;2.70;;;1.70;1.40;;;3.32;100.00;95733.48;645835;212;32135;-72
2021/11/12 02:49:37;;;;;;;2.10;1.50;;;1.60;1.40;;;3.42;100.00;95729.86;646975;216;32295;-69
2021/11/12 02:52:19;;;;;;;3.25;2.95;;;1.70;1.40;;;3.09;100.00;95725.22;646487;216;31585;-71
2021/11/12 02:55:00;;;;;;;3.70;2.03;;;1.60;1.40;;;3.15;100.00;95721.16;645886;216;31633;-72
2021/11/12 02:57:46;;;;;;;4.60;2.30;;;1.70;1.40;;;3.32;100.00;95724.22;646790;216;32146;-71
2021/11/12 03:00:27;;;;;;;2.05;1.70;;;1.80;1.40;;;3.33;100.00;95720.84;646758;216;32205;-69
2021/11/12 03:03:11;;;;;;;3.20;1.60;;;1.70;1.40;;;3.45;100.00;95725.45;645570;216;31523;-70
2021/11/12 03:05:53;;;;;;;3.00;2.50;;;1.70;1.40;;;3.41;100.00;95720.84;648002;216;41747;-72
2021/11/12 03:08:34;;;;;;;2.85;1.55;;;1.70;1.40;;;3.51;100.00;95722.61;647277;212;31572;-69
2021/11/12 03:11:16;;;;;;;3.20;2.90;;;1.80;1.40;;;3.33;100.00;95723.84;646152;216;31662;-70
2021/11/12 03:14:01;;;;;;;1.65;1.55;;;1.80;1.40;;;2.98;100.00;95725.84;646528;216;31565;-71
2021/11/12 03:16:43;;;;;;;2.80;1.83;;;1.70;1.40;;;3.19;100.00;95728.31;645665;216;31561;-69
2021/11/12 03:19:25;;;;;;;5.93;2.33;;;1.80;1.40;;;3.42;100.00;95724.19;646469;212;31624;-68
2021/11/12 03:22:09;;;;;;;2.28;2.08;;;1.80;1.40;;;3.24;100.00;95726.00;646929;216;31566;-70
2021/11/12 03:24:52;;;;;;;3.45;2.35;;;1.80;1.40;;;2.67;100.00;95736.22;647297;212;31629;-68
2021/11/12 03:27:39;;;;;;;3.60;3.00;;;1.50;1.40;;;2.46;100.00;95731.78;645836;216;31765;-71
2021/11/12 03:49:30;;;;;;;1.50;1.10;;;1.70;1.40;;;2.67;100.00;95723.52;645951;216;31600;-71
2021/11/12 04:01:35;;;;;;;1.80;1.70;;;1.50;1.40;;;2.78;100.00;95711.84;647362;212;31594;-71
2021/11/12 04:04:14;;;;;;;1.70;1.10;;;1.60;1.40;;;2.72;100.00;95710.53;645332;212;32201;-71
2021/11/12 04:06:49;;;;;;;2.20;2.00;;;1.60;1.40;;;3.05;100.00;95708.14;630964;217;32284;-71
2021/11/12 04:18:11;;;;;;;2.75;2.40;;;1.80;1.40;;;3.29;100.00;95705.48;645369;212;31615;-71
2021/11/12 04:21:02;;;;;;;4.18;1.67;;;1.80;1.40;;;3.35;100.00;95702.14;646217;216;31588;-69
2021/11/12 05:44:19;;;;;;;1.90;1.70;;;1.80;1.40;;;3.51;100.00;95700.04;647255;212;31578;-68
2021/11/12 05:49:42;;;;;;;1.80;1.70;;;1.80;1.40;;;3.60;100.00;95702.52;645650;216;32270;-69
2021/11/12 05:49:46;;;;;;;2.10;1.90;;;1.80;1.40;;;3.60;100.00;95700.43;646178;212;31591;-72
2021/11/12 05:55:15;;;;;;;1.35;1.00;;;1.70;1.40;;;3.54;100.00;95703.11;646658;216;31831;-69
2021/11/12 06:00:31;;;;;;;3.72;1.73;;;1.60;1.40;;;3.17;100.00;95697.86;646300;212;31540;-71
2021/11/12 06:03:13;;;;;;;3.65;2.70;;;1.60;1.40;;;3.23;100.00;95705.36;647140;216;31578;-72
2021/11/12 06:05:54;;;;;;;1.00;0.90;;;1.60;1.40;;;3.27;100.00;95698.39;644469;212;31567;-71
2021/11/12 06:08:37;;;;;;;1.60;1.50;;;1.60;1.40;;;3.38;100.00;95701.09;646847;216;31664;-69
2021/11/12 06:11:18;;;;;;;1.10;1.00;;;1.70;1.40;;;3.33;100.00;95700.16;646322;212;31740;-71
2021/11/12 06:14:01;;;;;;;1.35;1.25;;;1.70;1.40;;;3.43;100.00;95699.00;619166;226;31972;-71
2021/11/12 06:16:42;;;;;;;1.73;1.20;;;1.60;1.40;;;3.45;100.00;95698.55;646794;212;31655;-69
2021/11/12 06:19:24;;;;;;;1.30;1.10;;;1.60;1.40;;;3.36;100.00;95700.27;619796;222;32089;-71
2021/11/12 06:22:05;;;;;;;0.90;0.70;;;1.60;1.40;;;3.41;100.00;95701.51;645624;212;31687;-70
2021/11/12 06:24:47;;;;;;;0.70;0.70;;;1.70;1.40;;;3.01;100.00;95697.92;646777;212;31565;-72
2021/11/12 06:27:34;;;;;;;2.62;2.05;;;1.50;1.40;;;3.24;100.00;95693.05;646389;212;31581;-71
2021/11/12 06:30:15;;;;;;;1.83;1.33;;;1.60;1.40;;;3.29;100.00;95692.09;646850;212;31519;-71
2021/11/12 06:32:57;;;;;;;1.37;1.27;;;1.60;1.40;;;3.44;100.00;95683.31;647507;213;31576;-71
2021/11/12 06:35:52;;;;;;;1.60;1.50;;;1.60;1.40;;;3.34;100.00;95682.59;619283;222;42543;-71
2021/11/12 06:38:36;;;;;;;3.33;1.85;;;1.60;1.40;;;3.00;100.00;95684.05;645809;216;31582;-72
2021/11/12 06:41:24;;;;;;;2.40;1.25;;;1.50;1.40;;;3.20;100.00;95689.84;615887;222;32345;-71
2021/11/12 06:44:10;;;;;;;1.73;1.60;;;1.60;1.40;;;3.25;100.00;95700.52;647701;216;31656;-71
2021/11/12 06:49:31;;;;;;;2.62;1.20;;;1.60;1.40;;;3.11;100.00;95699.75;617960;222;32662;-71
2021/11/12 06:52:11;;;;;;;6.20;2.40;;;1.60;1.40;;;3.26;100.00;95701.75;616614;222;31919;-69
2021/11/12 06:54:52;;;;;;;3.80;2.00;;;1.60;1.40;;;3.29;100.00;95693.20;647510;216;31593;-72
2021/11/12 06:57:33;;;;;;;1.50;0.90;;;1.70;1.40;;;3.52;100.00;95686.39;618412;226;31926;-68
2021/11/12 07:00:16;;;;;;;1.60;1.50;;;1.80;1.40;;;2.73;100.00;95690.90;619432;222;32059;-69
2021/11/12 07:02:57;;;;;;;2.20;1.30;;;1.50;1.40;;;3.14;100.00;95689.87;646742;212;31581;-69
2021/11/12 07:05:39;;;;;;;4.20;3.20;;;1.70;1.40;;;3.31;100.00;95686.43;646343;216;31559;-70
2021/11/12 07:08:21;;;;;;;1.20;1.10;;;1.80;1.40;;;3.03;100.00;95692.38;617266;222;42759;-71
2021/11/12 07:11:02;;;;;;;3.28;1.70;;;1.60;1.40;;;2.96;100.00;95694.34;646036;216;31552;-69
2021/11/12 07:13:44;;;;;;;4.40;1.20;;;1.60;1.40;;;3.39;100.00;95694.52;646371;212;31614;-70
2021/11/12 07:16:26;;;;;;;0.85;0.80;;;1.80;1.40;;;3.62;100.00;95696.05;645882;212;31607;-71
2021/11/12 07:19:08;;;;;;;2.45;1.52;;;1.90;1.40;;;3.58;100.00;95687.97;646155;212;31519;-69
2021/11/12 07:21:49;;;;;;;1.10;0.82;;;1.80;1.40;;;3.21;100.00;95693.03;645503;212;31579;-70
2021/11/12 07:24:34;;;;;;;5.78;2.40;;;1.70;1.40;;;3.28;100.00;95704.41;646238;212;31533;-69
2021/11/12 07:27:16;;;;;;;1.10;1.05;;;1.70;1.40;;;3.29;100.00;95700.77;645919;212;31562;-69
2021/11/12 07:30:00;;;;;;;1.70;1.50;;;1.70;1.40;;;3.25;100.00;95692.80;631001;222;32007;-71
2021/11/12 07:32:44;;;;;;;2.10;1.90;;;1.80;1.40;;;2.95;100.00;95703.93;646912;216;32344;-71
2021/11/12 07:35:55;;;;;;;1.00;1.00;;;1.70;1.40;;;3.22;100.00;95705.47;645657;216;31626;-71
2021/11/12 07:41:53;;;;;;;1.70;1.60;;;1.90;1.40;;;3.67;100.00;95696.14;642411;216;32274;-71
2021/11/12 07:44:33;;;;;;;5.10;1.30;;;2.00;1.40;;;3.71;100.00;95697.30;646117;212;32122;-71
2021/11/12 07:47:09;;;;;;;2.62;1.62;;;2.00;1.40;;;3.39;100.00;95701.42;645479;216;31601;-71
2021/11/12 07:49:45;;;;;;;2.20;2.00;;;1.90;1.40;;;3.30;100.00;95697.19;645709;212;31567;-71
2021/11/12 07:52:27;;;;;;;1.20;1.20;;;2.00;1.40;;;3.50;100.00;95692.80;619880;222;31935;-71
2021/11/12 07:55:09;;;;;;;2.40;1.55;;;2.10;1.40;;;3.88;100.00;95696.88;645334;216;31525;-70
2021/11/12 07:57:50;;;;;;;1.20;1.20;;;2.30;1.40;;;4.35;100.00;95697.24;646155;216;31619;-71
2021/11/12 08:00:32;;;;;;;1.05;0.98;;;2.50;1.40;;;4.40;100.00;95688.47;645501;216;31928;-69
2021/11/12 08:03:14;;;;;;;1.30;1.20;;;2.50;1.40;;;4.03;100.00;95690.80;646671;216;31915;-70
2021/11/12 08:05:54;;;;;;;1.58;1.00;;;2.20;1.40;;;4.27;100.00;95696.25;645434;216;31573;-69
2021/11/12 08:08:39;;;;;;;1.83;1.10;;;2.40;1.40;;;4.32;100.00;95697.60;615503;227;31991;-70
2021/11/12 08:14:06;;;;;;;3.85;2.47;;;2.70;1.40;;;4.97;100.00;95691.78;646642;212;31658;-69
2021/11/12 08:19:39;;;;;;;2.30;2.10;;;2.50;1.40;;;4.49;100.00;95683.77;645840;212;31607;-69
2021/11/12 08:22:21;;;;;;;4.60;1.15;;;2.50;1.40;;;4.38;100.00;95680.94;647269;216;31604;-70
2021/11/12 08:30:51;;;;;;;3.10;1.50;;;2.50;1.40;;;4.91;100.00;95662.58;646291;212;31559;-70
2021/11/12 08:36:09;;;;;;;1.85;1.75;;;2.80;1.40;;;4.84;100.00;95662.94;648193;216;31602;-70
2021/11/12 08:38:45;;;;;;;2.40;1.80;;;2.70;1.40;;;4.45;100.00;95669.01;647196;213;31827;-69
2021/11/12 08:41:30;;;;;;;1.75;1.65;;;2.50;1.40;;;4.29;100.00;95672.89;643243;216;32188;-72
2021/11/12 08:44:14;;;;;;;2.50;1.87;;;2.50;1.40;;;4.63;100.00;95675.89;645274;216;31546;-69
2021/11/12 08:49:28;;;;;;;2.20;2.10;;;2.50;1.40;;;3.54;100.00;95664.03;646732;216;32095;-69
2021/11/12 08:52:06;;;;;;;1.65;1.55;;;2.30;1.40;;;3.44;100.00;95653.78;646455;212;31740;-69
2021/11/12 08:54:48;;;;;;;1.87;1.45;;;2.30;1.40;;;3.43;100.00;95654.36;645211;216;31995;-71
2021/11/12 08:57:33;;;;;;;2.20;1.45;;;2.30;1.40;;;3.20;100.00;95651.28;645704;213;31547;-70
2021/11/12 09:00:14;;;;;;;1.40;1.30;;;2.20;1.40;;;3.64;100.00;95651.94;647056;216;43310;-71
2021/11/12 09:02:57;;;;;;;2.37;1.67;;;2.50;1.40;;;3.26;100.00;95655.19;646963;216;31577;-70
2021/11/12 09:05:40;;;;;;;1.90;1.80;;;2.30;1.40;;;3.49;100.00;95652.64;646840;216;31546;-70
2021/11/12 09:08:22;;;;;;;3.00;1.70;;;2.40;1.40;;;3.95;100.00;95655.08;645264;212;31752;-69
2021/11/12 09:11:04;;;;;;;2.42;2.22;;;2.70;1.40;;;3.90;100.00;95655.66;646960;212;31584;-71
2021/11/12 09:13:48;;;;;;;3.28;2.12;;;2.60;1.40;;;4.68;100.00;95653.06;644963;216;31597;-68
2021/11/12 09:16:32;;;;;;;1.40;1.30;;;3.00;1.40;;;5.20;100.00;95650.17;646767;212;31787;-72
2021/11/12 09:19:14;;;;;;;1.90;0.82;;;3.00;1.40;;;5.50;100.00;95648.50;646400;215;31603;-70
2021/11/12 09:21:53;;;;;;;2.30;2.10;;;3.20;1.40;;;5.47;100.00;95644.46;646331;212;31559;-69
2021/11/12 09:24:35;;;;;;;2.00;1.90;;;3.20;1.40;;;5.17;100.00;95644.14;646990;216;31852;-72
2021/11/12 09:27:17;;;;;;;1.87;1.65;;;3.10;1.40;;;5.45;100.00;95636.72;646352;216;31699;-70
2021/11/12 09:30:01;;;;;;;2.22;2.03;;;3.20;1.40;;;5.65;100.00;95639.93;646547;216;31585;-71
2021/11/12 09:32:43;;;;;;;2.72;1.77;;;3.20;1.40;;;4.73;100.00;95640.58;646932;216;31764;-70
2021/11/12 09:35:51;;;;;;;1.92;1.67;;;2.90;1.40;;;5.34;100.00;95632.91;647159;212;31594;-69
2021/11/12 09:38:32;;;;;;;1.52;1.37;;;3.20;1.40;;;4.85;100.00;95644.41;646448;216;31688;-72
2021/11/12 09:41:14;;;;;;;2.83;1.30;;;3.10;1.40;;;4.68;100.00;95632.13;644594;216;31730;-69
2021/11/12 09:43:56;;;;;;;2.20;1.87;;;3.10;1.40;;;5.29;100.00;95628.88;645892;216;31565;-72
2021/11/12 09:46:37;;;;;;;1.95;1.83;;;3.40;1.40;;;5.55;100.00;95628.98;646732;212;31697;-70
2021/11/12 09:49:19;;;;;;;3.30;3.10;;;3.50;1.40;;;5.51;100.00;95623.70;645553;212;31579;-69
2021/11/12 09:52:01;;;;;;;1.52;1.42;;;3.50;1.40;;;6.12;100.00;95615.76;646486;216;31609;-71
2021/11/12 09:54:42;;;;;;;3.80;2.58;;;3.60;1.40;;;6.32;100.00;95612.38;646670;212;32039;-72
2021/11/12 09:57:24;;;;;;;1.62;1.50;;;3.80;1.40;;;5.93;100.00;95618.45;641533;217;31542;-69
2021/11/12 10:00:08;;;;;;;3.28;1.98;;;3.70;1.40;;;5.48;100.00;95619.24;646122;216;31579;-72
2021/11/12 10:02:50;;;;;;;2.10;1.90;;;3.60;1.40;;;5.79;100.00;95620.05;646434;212;31581;-69
2021/11/12 10:05:39;;;;;;;3.10;2.80;;;3.60;1.40;;;4.97;100.00;95628.91;646242;213;31782;-69
2021/11/12 10:08:33;;;;;;;2.47;1.98;;;3.40;1.40;;;4.90;100.00;95618.63;646359;216;31579;-70
2021/11/12 10:11:14;;;;;;;1.62;1.52;;;3.20;1.40;;;4.85;100.00;95615.40;646425;216;31913;-69
2021/11/12 10:14:01;;;;;;;1.83;1.73;;;3.30;1.40;;;4.48;100.00;95614.14;646270;216;31524;-71
2021/11/12 10:16:45;;;;;;;1.80;1.60;;;3.20;1.40;;;4.90;100.00;95612.40;646774;212;31603;-70
2021/11/12 10:19:27;;;;;;;2.80;2.60;;;3.50;1.40;;;5.71;100.00;95599.05;646499;216;31595;-72
2021/11/12 10:22:11;;;;;;;2.80;2.60;;;3.90;1.40;;;6.24;100.00;95605.96;619161;226;31920;-69
2021/11/12 10:24:53;;;;;;;3.00;2.80;;;4.10;1.40;;;5.79;100.00;95594.92;646889;212;31596;-70
2021/11/12 10:27:35;;;;;;;1.30;1.20;;;3.90;1.40;;;6.46;100.00;95584.59;646014;216;31561;-71
2021/11/12 10:30:22;;;;;;;2.47;2.28;;;4.30;1.40;;;6.91;100.00;95584.74;645555;216;31565;-72
2021/11/12 10:33:02;;;;;;;2.60;2.08;;;4.40;1.40;;;5.87;100.00;95582.11;645351;216;42641;-72
2021/11/12 10:35:52;;;;;;;2.83;2.58;;;4.00;1.40;;;5.83;100.00;95575.61;645885;212;31575;-70
2021/11/12 10:38:38;;;;;;;2.53;2.33;;;4.00;1.40;;;6.50;100.00;95574.30;645570;216;32529;-70
2021/11/12 10:41:22;;;;;;;2.85;2.65;;;4.30;1.40;;;6.96;100.00;95571.52;616265;222;43420;-69
2021/11/12 10:45:25;;;;;;;2.45;2.22;;;4.40;1.40;;;5.72;100.00;95570.27;646314;216;31612;-69
2021/11/12 10:48:07;;;;;;;2.30;2.10;;;4.10;1.40;;;5.52;100.00;95571.66;646594;216;42205;-70
2021/11/12 10:50:51;;;;;;;2.93;2.70;;;3.90;1.40;;;5.83;100.00;95568.88;645972;216;31553;-69
2021/11/12 10:53:31;;;;;;;2.50;2.30;;;4.10;1.40;;;5.98;100.00;95561.11;646745;216;31638;-70
2021/11/12 10:56:12;;;;;;;4.87;2.60;;;4.10;1.40;;;5.07;100.00;95557.23;646007;216;31660;-72
2021/11/12 10:58:58;;;;;;;1.50;1.40;;;3.70;1.40;;;6.03;100.00;95554.16;646057;212;31708;-71
2021/11/12 11:01:40;;;;;;;2.40;2.20;;;4.10;1.40;;;6.50;100.00;95547.25;640005;214;31563;-72
2021/11/12 11:04:23;;;;;;;2.33;2.12;;;4.40;1.40;;;6.20;100.00;95546.97;646906;216;31746;-70
2021/11/12 11:07:16;;;;;;;2.65;2.20;;;4.30;1.40;;;6.49;100.00;95542.63;645708;216;31592;-70
2021/11/12 11:09:58;;;;;;;3.00;2.80;;;4.20;1.40;;;6.25;100.00;95544.64;646321;216;42187;-69
2021/11/12 11:12:42;;;;;;;1.52;1.48;;;4.30;1.40;;;6.77;100.00;95544.43;646754;216;31605;-69
2021/11/12 11:15:28;;;;;;;3.67;2.80;;;4.50;1.40;;;6.75;100.00;95545.95;646040;212;31612;-70
2021/11/12 11:18:21;;;;;;;2.67;2.10;;;4.60;1.40;;;7.19;100.00;95537.64;645229;216;31673;-72
2021/11/12 11:21:24;;;;;;;4.25;3.00;;;4.50;1.40;;;7.00;100.00;95539.95;617901;222;31947;-70
2021/11/12 11:24:07;;;;;;;2.58;2.37;;;4.40;1.40;;;7.19;100.00;95539.04;636178;220;31799;-70
2021/11/12 11:26:49;;;;;;;3.20;2.40;;;4.70;1.40;;;7.23;100.00;95537.17;642131;215;31442;-69
2021/11/12 11:29:31;;;;;;;2.10;2.00;;;4.70;1.40;;;7.29;100.00;95537.31;646504;212;42674;-70
2021/11/12 11:32:15;;;;;;;2.00;1.90;;;4.80;1.40;;;5.87;100.00;95531.48;619008;222;42883;-70
2021/11/12 11:35:55;;;;;;;2.35;2.15;;;4.40;1.40;;;6.84;100.00;95526.87;647124;212;31566;-72
2021/11/12 11:38:33;;;;;;;2.70;2.60;;;4.50;1.40;;;7.00;100.00;95525.61;646011;216;42125;-70
2021/11/12 11:41:15;;;;;;;2.80;2.60;;;4.50;1.40;;;6.86;100.00;95522.60;643897;216;42366;-69
2021/11/12 11:43:56;;;;;;;1.95;1.80;;;4.40;1.40;;;6.77;100.00;95517.81;646462;212;31563;-71
2021/11/12 11:46:41;;;;;;;2.70;2.30;;;4.40;1.40;;;7.18;100.00;95515.16;646277;216;31672;-69
2021/11/12 11:49:19;;;;;;;2.10;1.80;;;4.60;1.40;;;6.98;100.00;95510.20;645932;216;31849;-72
2021/11/12 11:52:06;;;;;;;2.90;2.70;;;4.80;1.40;;;7.37;100.00;95512.23;646320;213;31598;-72
2021/11/12 11:54:46;;;;;;;2.95;2.67;;;4.80;1.40;;;7.49;100.00;95506.98;645643;216;42223;-70
2021/11/12 11:57:28;;;;;;;1.70;1.60;;;4.80;1.40;;;6.46;100.00;95503.81;646961;212;42581;-71
2021/11/12 12:00:20;;;;;;;2.10;1.90;;;4.60;1.40;;;6.59;100.00;95507.00;645433;212;31575;-70
2021/11/12 12:03:20;;;;;;;3.97;3.60;;;4.70;1.40;;;6.62;100.00;95510.05;646105;212;31589;-70
2021/11/12 12:06:07;;;;;;;4.40;3.15;;;4.60;1.40;;;6.97;100.00;95509.73;646879;216;31610;-70
2021/11/12 12:09:03;;;;;;;2.87;2.67;;;4.70;1.40;;;6.40;100.00;95512.08;645441;216;31720;-72
2021/11/12 12:11:56;;;;;;;2.87;2.67;;;4.50;1.40;;;6.06;100.00;95507.27;645802;212;42276;-71
2021/11/12 12:14:37;;;;;;;2.80;2.50;;;4.40;1.40;;;6.53;100.00;95503.20;646227;212;31926;-70
2021/11/12 12:17:25;;;;;;;1.85;1.60;;;4.70;1.40;;;6.87;100.00;95493.33;646579;216;31585;-71
2021/11/12 12:36:35;;;;;;;1.83;1.65;;;4.40;1.40;;;;;;646213;213;31615;-71
2021/11/12 13:19:51;;;;;;;2.15;1.85;;;4.50;1.40;;;;;;645966;216;32268;-70
2021/11/12 13:22:19;;;;;;;2.95;2.75;;;4.50;1.40;;;;;;619062;222;31960;-70
2021/11/12 13:24:56;;;;;;;2.12;1.92;;;4.60;1.40;;;;;;646926;212;33318;-71
2021/11/12 13:27:37;;;;;;;2.78;1.67;;;4.70;1.40;;;;;;646309;216;31537;-72
2021/11/12 13:30:33;;;;;;;3.10;2.90;;;4.50;1.40;;;;;;646112;213;31544;-72
2021/11/12 13:35:52;;;;;;;2.53;2.15;;;4.40;1.40;;;6.33;100.00;95443.73;646762;212;31578;-71
2021/11/12 13:38:35;;;;;;;2.00;1.90;;;4.40;1.40;;;;;;646476;212;31541;-70
2021/11/12 13:41:16;;;;;;;3.10;2.90;;;4.40;1.40;;;;;;616297;226;32612;-69
2021/11/12 13:43:58;;;;;;;1.40;1.30;;;4.40;1.40;;;;;;646566;216;32086;-71
2021/11/12 13:46:48;;;;;;;3.70;3.40;;;4.40;1.40;;;;;;646024;216;31565;-72
2021/11/12 13:49:32;;;;;;;2.70;2.53;;;4.60;1.40;;;;;;646435;216;31895;-72
2021/11/12 13:52:22;;;;;;;2.25;2.05;;;4.50;1.40;;;;;;645241;216;31557;-70
2021/11/12 13:55:02;;;;;;;2.40;2.30;;;4.60;1.40;;;;;;646419;216;31554;-69
2021/11/12 13:57:52;;;;;;;3.53;2.45;;;4.60;1.40;;;;;;646121;212;31835;-72
2021/11/12 14:00:36;;;;;;;2.00;1.80;;;4.50;1.40;;;;;;646286;216;31697;-70
2021/11/12 14:03:19;;;;;;;1.85;1.73;;;4.40;1.40;;;;;;647052;216;32079;-69
2021/11/12 14:05:59;;;;;;;3.50;3.10;;;4.40;1.40;;;;;;646274;212;31752;-72
2021/11/12 14:08:42;;;;;;;3.58;2.55;;;4.30;1.40;;;;;;645272;212;31571;-69
2021/11/12 14:11:25;;;;;;;2.45;2.25;;;4.30;1.40;;;;;;646155;212;31596;-70
2021/11/12 14:14:06;;;;;;;3.05;2.85;;;4.30;1.40;;;;;;647106;216;31550;-71
2021/11/12 14:16:52;;;;;;;2.75;2.45;;;4.40;1.40;;;;;;647476;216;31782;-71
2021/11/12 14:22:28;;;;;;;2.87;2.62;;;4.40;1.40;;;;;;618669;222;32023;-71
2021/11/12 14:25:09;;;;;;;3.22;2.78;;;4.30;1.40;;;;;;646470;212;31564;-70
2021/11/12 14:27:54;;;;;;;3.40;2.30;;;4.30;1.40;;;;;;618417;222;31934;-69
2021/11/12 14:30:54;;;;;;;3.08;2.87;;;4.30;1.40;;;;;;645826;216;31575;-69
2021/11/12 14:38:55;;;;;;;1.95;1.80;;;4.40;1.40;;;5.95;100.00;95427.09;645474;212;42500;-71
2021/11/12 14:41:51;;;;;;;2.50;2.30;;;4.30;1.40;;;5.84;100.00;95425.02;642763;212;43035;-70
2021/11/12 14:44:40;;;;;;;2.40;2.30;;;4.20;1.40;;;5.58;100.00;95421.92;619594;222;31917;-72
2021/11/12 14:52:32;;;;;;;2.17;1.98;;;4.10;1.40;;;6.09;100.00;95401.01;646064;216;31565;-70
2021/11/12 14:55:14;;;;;;;2.00;1.90;;;4.10;1.40;;;6.06;100.00;95399.78;645411;216;31573;-72
2021/11/12 14:57:56;;;;;;;3.97;2.92;;;4.10;1.40;;;5.28;100.00;95406.55;646936;216;31607;-68
2021/11/12 15:00:39;;;;;;;3.00;2.70;;;3.90;1.40;;;5.14;100.00;95404.45;646999;212;31611;-70
2021/11/12 15:03:20;;;;;;;2.87;2.05;;;3.80;1.40;;;5.43;100.00;95403.37;645766;216;31776;-72
2021/11/12 15:06:01;;;;;;;2.37;2.17;;;4.00;1.40;;;5.44;100.00;95408.05;647472;216;32310;-72
2021/11/12 15:08:49;;;;;;;3.65;2.90;;;4.00;1.40;;;5.08;100.00;95409.45;646942;212;31661;-71
2021/11/12 15:11:30;;;;;;;3.72;2.10;;;3.80;1.40;;;5.07;100.00;95406.50;645246;212;42411;-71
2021/11/12 15:14:13;;;;;;;3.25;2.95;;;3.80;1.40;;;4.80;100.00;95405.50;645416;212;31547;-71
2021/11/12 15:16:52;;;;;;;2.55;2.25;;;3.70;1.40;;;4.80;100.00;95408.51;619752;222;42526;-71
2021/11/12 15:19:36;;;;;;;4.18;2.97;;;3.70;1.40;;;4.84;100.00;95400.86;647500;216;31564;-72
2021/11/12 15:22:32;;;;;;;2.28;2.00;;;3.70;1.40;;;4.95;100.00;95398.37;646349;212;31697;-70
2021/11/12 15:25:17;;;;;;;2.45;2.33;;;3.70;1.40;;;4.86;100.00;95397.09;645412;212;42233;-71
2021/11/12 15:28:01;;;;;;;2.10;1.50;;;3.80;1.40;;;5.08;100.00;95400.97;646598;213;42195;-71
2021/11/12 15:30:40;;;;;;;3.60;3.30;;;3.80;1.40;;;5.29;100.00;95402.24;646542;216;42207;-71
2021/11/12 15:35:52;;;;;;;2.33;2.12;;;3.80;1.40;;;;;;646701;216;31589;-71
2021/11/12 15:38:40;;;;;;;2.20;2.00;;;3.70;1.40;;;;;;648095;216;31541;-72
2021/11/12 15:41:33;;;;;;;2.40;2.20;;;3.60;1.40;;;;;;643230;212;31716;-71
2021/11/12 15:44:00;;;;;;;4.05;2.90;;;3.70;1.40;;;;;;646147;212;31653;-71
2021/11/12 15:46:43;;;;;;;2.55;1.85;;;3.70;1.40;;;;;;646914;216;31678;-70
2021/11/12 15:49:24;;;;;;;2.72;2.50;;;3.70;1.40;;;;;;647008;216;31589;-70
2021/11/12 15:52:09;;;;;;;2.62;2.42;;;3.90;1.40;;;;;;645989;212;31548;-70
2021/11/12 15:54:55;;;;;;;2.78;2.58;;;3.80;1.40;;;;;;647605;216;42154;-71
2021/11/12 15:57:57;;;;;;;3.00;2.72;;;3.70;1.40;;;;;;646151;216;31578;-72
2021/11/12 16:12:12;;;;;;;2.40;2.25;;;3.90;1.40;;;;;;646153;216;31551;-71
2021/11/12 16:17:38;;;;;;;3.45;2.85;;;3.90;1.40;;;;;;645724;216;32017;-72
2021/11/12 16:25:42;;;;;;;1.85;1.75;;;3.70;1.40;;;;;;645546;216;31839;-72
2021/11/12 16:28:24;;;;;;;3.65;2.65;;;3.70;1.40;;;;;;645307;216;31599;-71
2021/11/12 16:31:05;;;;;;;3.15;1.85;;;3.70;1.40;;;;;;647446;216;31561;-72
2021/11/12 16:35:53;;;;;;;2.62;2.42;;;3.60;1.40;;;4.82;100.00;95393.47;645766;212;31555;-72
2021/11/12 16:38:35;;;;;;;2.55;2.35;;;3.60;1.40;;;4.89;100.00;95392.69;645737;212;42419;-70